Time;durP1;ratioP1;P1;durP2;ratioP2;P2;SDS_P1;SDS_P2;PMS_P1;PMS_P2;Temp;Humidity;BMP_temperature;BMP_pressure;BME280_temperature;BME280_humidity;BME280_pressure;Samples;Min_cycle;Max_cycle;Signal;HPM_P1;HPM_P2
2021/01/09 00:00:09;;;;;;;21.27;13.33;;;;;;;-1.72;98.74;95816.31;1021249;28;20046;-74
2021/01/09 00:00:39;;;;;;;18.48;12.35;;;;;;;-1.74;98.41;95818.31;1027630;28;20042;-72
2021/01/09 00:01:10;;;;;;;19.57;12.83;;;;;;;-1.72;97.74;95818.91;1024243;28;20042;-71
2021/01/09 00:01:41;;;;;;;18.67;12.00;;;;;;;-1.80;97.78;95802.81;1025396;28;20100;-71
2021/01/09 00:02:15;;;;;;;18.02;11.90;;;;;;;-1.73;97.61;95807.03;1022581;29;20110;-73
2021/01/09 00:02:45;;;;;;;19.73;13.10;;;;;;;-1.72;97.84;95816.31;1015244;29;20052;-71
2021/01/09 00:03:16;;;;;;;19.07;12.60;;;;;;;-1.73;98.16;95817.31;1018226;29;20047;-72
2021/01/09 00:03:46;;;;;;;19.50;12.17;;;;;;;-1.72;97.93;95816.31;1019258;29;20051;-71
2021/01/09 00:04:17;;;;;;;19.37;12.40;;;;;;;-1.76;97.58;95817.69;1018934;29;20578;-71
2021/01/09 00:04:47;;;;;;;17.50;11.97;;;;;;;-1.74;97.49;95817.50;1022672;28;20035;-72
2021/01/09 00:05:18;;;;;;;19.40;12.80;;;;;;;-1.74;97.70;95810.59;1026632;28;20027;-71
2021/01/09 00:05:52;;;;;;;21.47;13.03;;;;;;;-1.73;97.85;95819.09;1026917;28;20541;-72
2021/01/09 00:06:22;;;;;;;20.27;12.50;;;;;;;-1.71;98.13;95817.13;1026046;28;20019;-71
2021/01/09 00:06:53;;;;;;;18.53;12.23;;;;;;;-1.81;97.91;95802.03;1023146;28;20138;-71
2021/01/09 00:07:23;;;;;;;19.70;13.03;;;;;;;-1.75;97.93;95814.13;1022776;29;20050;-71
2021/01/09 00:07:54;;;;;;;20.13;12.37;;;;;;;-1.74;97.90;95815.72;1024300;28;20030;-69
2021/01/09 00:08:24;;;;;;;20.47;13.17;;;;;;;-1.72;98.51;95821.47;1026408;28;20027;-71
2021/01/09 00:08:55;;;;;;;19.80;12.73;;;;;;;-1.71;98.70;95819.69;1022830;29;20034;-71
2021/01/09 00:09:25;;;;;;;22.93;13.40;;;;;;;-1.69;98.39;95818.53;1014674;29;20217;-71
2021/01/09 00:09:56;;;;;;;16.90;11.67;;;;;;;-1.69;98.15;95817.75;1019232;29;20038;-72
2021/01/09 00:10:26;;;;;;;17.23;11.43;;;;;;;-1.73;97.83;95817.31;1022691;29;20031;-71
2021/01/09 00:10:57;;;;;;;17.57;12.13;;;;;;;-1.99;97.54;95789.56;1018724;29;20032;-71
2021/01/09 00:11:31;;;;;;;17.40;12.07;;;;;;;-1.77;97.97;95816.09;1022819;29;20099;-71
2021/01/09 00:12:02;;;;;;;20.52;12.25;;;;;;;-1.73;97.86;95822.47;1026540;28;20090;-70
2021/01/09 00:12:33;;;;;;;18.53;11.77;;;;;;;-2.15;97.55;95770.03;1026986;28;20035;-71
2021/01/09 00:13:03;;;;;;;18.58;12.55;;;;;;;-1.76;97.58;95816.88;1022711;29;20037;-71
2021/01/09 00:13:34;;;;;;;17.60;11.77;;;;;;;-1.78;97.90;95819.63;1024010;28;20498;-73
2021/01/09 00:14:05;;;;;;;15.97;11.03;;;;;;;-1.82;97.63;95807.31;1022792;29;20032;-71
2021/01/09 00:14:35;;;;;;;19.50;11.97;;;;;;;-1.78;97.34;95824.78;1022685;29;20486;-71
2021/01/09 00:15:09;;;;;;;17.77;11.57;;;;;;;-1.76;97.29;95822.03;1018386;29;20051;-70
2021/01/09 00:15:40;;;;;;;19.98;13.02;;;;;;;-1.81;97.40;95821.78;1022645;29;20035;-71
2021/01/09 00:16:10;;;;;;;18.60;12.10;;;;;;;-1.86;97.50;95806.91;1018341;29;20135;-70
2021/01/09 00:16:48;;;;;;;17.20;11.87;;;;;;;-1.82;97.83;95813.25;1025501;28;20130;-72
2021/01/09 00:17:18;;;;;;;19.58;12.20;;;;;;;-1.73;98.05;95824.25;1014852;29;20028;-72
2021/01/09 00:17:49;;;;;;;17.40;11.03;;;;;;;-1.75;97.54;95829.56;1017314;28;20511;-71
2021/01/09 00:18:19;;;;;;;17.33;10.80;;;;;;;-1.85;97.13;95805.91;1025125;28;20027;-70
2021/01/09 00:18:53;;;;;;;14.40;10.67;;;;;;;-1.74;97.10;95823.44;1015212;29;20168;-70
2021/01/09 00:19:24;;;;;;;19.63;12.15;;;;;;;-1.74;97.07;95823.44;1018251;29;20031;-73
2021/01/09 00:19:55;;;;;;;18.33;11.20;;;;;;;-1.79;97.12;95822.41;1018274;29;20032;-70
2021/01/09 00:20:26;;;;;;;17.80;11.57;;;;;;;-1.78;97.04;95827.34;1023109;28;20562;-70
2021/01/09 00:20:56;;;;;;;19.47;11.90;;;;;;;-1.80;97.48;95825.94;1022732;29;20275;-72
2021/01/09 00:21:34;;;;;;;16.87;10.73;;;;;;;-1.78;97.95;95832.47;1020809;28;20039;-72
2021/01/09 00:22:04;;;;;;;17.98;11.82;;;;;;;-1.80;97.31;95825.94;1027625;28;20042;-71
2021/01/09 00:22:35;;;;;;;18.43;12.57;;;;;;;-1.82;97.90;95826.13;1030642;28;20034;-73
2021/01/09 00:23:06;;;;;;;18.57;11.67;;;;;;;-1.80;97.78;95826.75;1023588;28;20522;-71
2021/01/09 00:23:36;;;;;;;19.80;12.13;;;;;;;-1.80;97.35;95826.75;1014981;29;20514;-73
2021/01/09 00:24:07;;;;;;;17.40;11.80;;;;;;;-1.87;97.68;95805.31;1016802;28;20664;-73
2021/01/09 00:24:38;;;;;;;19.20;11.77;;;;;;;-1.87;97.67;95818.16;1023067;28;20027;-73
2021/01/09 00:25:12;;;;;;;16.70;12.10;;;;;;;-1.86;97.98;95817.19;1026340;28;20023;-71
2021/01/09 00:25:42;;;;;;;19.75;11.35;;;;;;;-1.78;97.82;95823.97;1018691;29;21054;-72
2021/01/09 00:26:13;;;;;;;20.50;11.50;;;;;;;-1.80;97.97;95821.59;1022581;29;20123;-71
2021/01/09 00:26:43;;;;;;;19.17;12.47;;;;;;;-1.89;98.33;95814.97;1022294;28;20039;-72
2021/01/09 00:27:14;;;;;;;17.47;12.20;;;;;;;-1.79;98.28;95823.19;1020038;28;20090;-73
2021/01/09 00:27:44;;;;;;;20.10;12.13;;;;;;;-1.89;98.10;95817.53;1018900;29;20035;-70
2021/01/09 00:28:15;;;;;;;17.97;11.50;;;;;;;-1.81;98.23;95825.16;1018495;29;20119;-71
2021/01/09 00:28:45;;;;;;;19.33;12.33;;;;;;;-1.82;98.11;95823.56;1017642;29;20039;-71
2021/01/09 00:29:16;;;;;;;18.70;12.30;;;;;;;-1.83;98.62;95826.31;1018671;29;20035;-71
2021/01/09 00:29:46;;;;;;;19.97;12.57;;;;;;;-1.81;98.67;95827.75;1016705;29;20028;-71
2021/01/09 00:30:17;;;;;;;19.43;11.77;;;;;;;-1.80;98.02;95826.75;1014961;29;20036;-71
2021/01/09 00:30:48;;;;;;;18.90;12.57;;;;;;;-1.79;98.62;95830.91;1018708;29;20430;-71
2021/01/09 00:31:18;;;;;;;19.53;12.03;;;;;;;-1.78;98.71;95831.69;1022983;28;20046;-71
2021/01/09 00:31:49;;;;;;;18.30;12.47;;;;;;;-1.86;98.49;95817.19;1022736;28;20501;-71
2021/01/09 00:32:19;;;;;;;20.23;12.97;;;;;;;-1.87;98.64;95820.75;1018651;29;20035;-73
2021/01/09 00:32:50;;;;;;;19.23;12.60;;;;;;;-1.79;98.75;95832.69;1022415;29;20035;-72
2021/01/09 00:33:20;;;;;;;18.73;12.27;;;;;;;-1.83;98.40;95826.31;1018345;29;20515;-72
2021/01/09 00:33:51;;;;;;;17.37;12.27;;;;;;;-1.81;98.26;95830.31;1018746;28;20079;-72
2021/01/09 00:34:22;;;;;;;17.00;11.57;;;;;;;-1.80;97.98;95831.88;1022773;28;20023;-72
2021/01/09 00:34:52;;;;;;;17.90;11.77;;;;;;;-1.78;97.73;95835.06;1026203;28;20478;-72
2021/01/09 00:35:23;;;;;;;18.00;11.80;;;;;;;-1.79;97.57;95828.31;1026835;28;20477;-72
2021/01/09 00:35:56;;;;;;;17.27;11.57;;;;;;;-1.78;98.12;95829.91;1026778;28;20026;-70
2021/01/09 00:36:27;;;;;;;20.42;11.88;;;;;;;-1.78;97.76;95829.13;1025682;28;20118;-72
2021/01/09 00:36:57;;;;;;;19.80;12.77;;;;;;;-1.78;97.72;95829.13;1022682;28;20118;-73
2021/01/09 00:37:28;;;;;;;18.07;11.87;;;;;;;-1.83;98.16;95824.53;1022724;29;20023;-71
2021/01/09 00:37:58;;;;;;;19.90;12.23;;;;;;;-1.76;98.10;95830.53;1023228;28;20023;-71
2021/01/09 00:38:29;;;;;;;17.43;11.93;;;;;;;-1.87;97.98;95815.59;1022121;28;20133;-71
2021/01/09 00:39:00;;;;;;;19.67;12.17;;;;;;;-1.83;98.05;95821.97;1018635;29;20027;-71
2021/01/09 00:39:30;;;;;;;22.57;12.50;;;;;;;-1.74;98.03;95836.31;1026575;28;20487;-72
2021/01/09 00:40:01;;;;;;;18.10;12.43;;;;;;;-1.75;97.71;95828.75;1026403;28;20069;-71
2021/01/09 00:40:31;;;;;;;18.50;11.80;;;;;;;-1.77;97.82;95828.97;1026661;28;20031;-71
2021/01/09 00:41:02;;;;;;;19.63;12.43;;;;;;;-1.77;98.20;95830.75;1026566;28;20035;-72
2021/01/09 00:41:32;;;;;;;17.00;11.20;;;;;;;-1.79;98.08;95827.53;1018012;29;20032;-71
2021/01/09 00:42:03;;;;;;;18.37;12.27;;;;;;;-1.82;97.74;95827.91;1022610;29;20094;-72
2021/01/09 00:42:44;;;;;;;19.97;12.47;;;;;;;-1.72;97.87;95833.53;1018617;29;20019;-71
2021/01/09 00:43:15;;;;;;;19.05;12.25;;;;;;;-1.75;97.38;95837.28;1019757;29;20032;-71
2021/01/09 00:43:45;;;;;;;19.50;12.50;;;;;;;-1.84;97.41;95825.53;1024225;28;20031;-72
2021/01/09 00:44:16;;;;;;;18.17;11.93;;;;;;;-1.77;97.95;95835.88;1025973;28;20027;-73
2021/01/09 00:44:46;;;;;;;20.50;12.30;;;;;;;-1.82;97.82;95822.75;1026671;28;20041;-71
2021/01/09 00:45:17;;;;;;;18.50;11.80;;;;;;;-1.75;98.21;95834.69;1022482;29;20019;-74
2021/01/09 00:45:48;;;;;;;18.77;12.53;;;;;;;-1.76;97.80;95837.47;1022745;29;20030;-72
2021/01/09 00:46:18;;;;;;;19.37;13.30;;;;;;;-1.80;97.89;95831.09;1026151;28;20019;-71
2021/01/09 00:46:53;;;;;;;20.27;12.30;;;;;;;-1.88;97.73;95826.84;1018023;29;20059;-68
2021/01/09 00:47:23;;;;;;;19.45;12.02;;;;;;;-1.85;97.53;95829.06;1019136;29;20047;-72
2021/01/09 00:47:54;;;;;;;19.10;11.93;;;;;;;-1.78;97.99;95835.06;1022606;29;20114;-73
2021/01/09 00:48:24;;;;;;;18.67;12.63;;;;;;;-1.79;97.63;95838.63;1023184;28;20023;-71
2021/01/09 00:48:55;;;;;;;19.77;12.63;;;;;;;-1.80;97.87;95839.59;1026582;28;20493;-73
2021/01/09 00:49:25;;;;;;;18.77;12.37;;;;;;;-1.82;97.64;95826.13;1030538;28;20030;-72
2021/01/09 00:49:56;;;;;;;18.47;12.37;;;;;;;-1.81;97.54;95832.06;1034636;28;20033;-71
2021/01/09 00:50:26;;;;;;;18.40;11.97;;;;;;;-1.85;97.44;95823.91;1034398;28;20476;-71
2021/01/09 00:50:57;;;;;;;18.97;12.13;;;;;;;-1.84;97.91;95835.81;1030456;28;20034;-72
2021/01/09 00:51:27;;;;;;;17.47;11.80;;;;;;;-1.88;97.95;95828.63;1030459;28;20058;-72
2021/01/09 00:51:58;;;;;;;17.00;12.00;;;;;;;-1.81;97.87;95824.34;1015977;29;20032;-71
2021/01/09 00:52:28;;;;;;;20.37;13.10;;;;;;;-1.85;98.06;95823.91;1014823;29;20073;-72
2021/01/09 00:52:59;;;;;;;18.40;12.00;;;;;;;-1.78;98.03;95832.47;1014707;29;20080;-71
2021/01/09 00:53:29;;;;;;;17.63;11.50;;;;;;;-1.77;97.96;95836.66;1011313;29;20113;-71
2021/01/09 00:54:00;;;;;;;19.37;12.10;;;;;;;-1.78;98.04;95827.34;1022714;28;20023;-75
2021/01/09 00:54:31;;;;;;;19.33;12.57;;;;;;;-1.78;98.05;95834.25;1026802;28;20168;-72
2021/01/09 00:55:02;;;;;;;18.25;12.18;;;;;;;-1.85;98.49;95823.13;1031636;28;20212;-73
2021/01/09 00:55:33;;;;;;;18.87;12.67;;;;;;;-1.78;98.38;95829.91;1030796;28;20633;-71
2021/01/09 00:56:04;;;;;;;20.70;12.70;;;;;;;-1.82;97.97;95818.41;1027488;28;20050;-73
2021/01/09 00:56:35;;;;;;;18.70;12.55;;;;;;;-1.76;97.88;95838.25;1022628;29;20613;-71
2021/01/09 00:57:05;;;;;;;17.43;12.23;;;;;;;-1.84;97.95;95830.66;1021369;28;20082;-73
2021/01/09 00:57:36;;;;;;;19.03;12.47;;;;;;;-1.77;97.87;95834.09;1023421;28;20031;-72
2021/01/09 00:58:06;;;;;;;19.47;12.50;;;;;;;-1.78;98.15;95829.91;1027653;28;20042;-72
2021/01/09 00:58:37;;;;;;;22.33;13.37;;;;;;;-1.82;98.34;95827.91;1035144;28;20026;-71
2021/01/09 00:59:07;;;;;;;20.20;13.53;;;;;;;-1.78;98.46;95829.91;1027330;28;20023;-71
2021/01/09 00:59:37;;;;;;;20.20;13.47;;;;;;;-1.80;98.92;95828.53;1027237;28;20414;-74
2021/01/09 01:00:08;;;;;;;19.70;13.30;;;;;;;-1.78;98.91;95837.63;1027428;28;20019;-72
2021/01/09 01:00:39;;;;;;;19.53;12.87;;;;;;;-1.81;99.38;95835.44;1027561;28;20023;-72
2021/01/09 01:01:10;;;;;;;19.00;13.03;;;;;;;-1.86;99.62;95827.47;1035247;28;20033;-72
2021/01/09 01:01:40;;;;;;;20.85;13.63;;;;;;;-1.86;99.66;95831.81;1027180;28;20482;-73
2021/01/09 01:02:11;;;;;;;20.60;13.50;;;;;;;-1.88;99.44;95824.28;1016943;29;20032;-73
2021/01/09 01:02:41;;;;;;;19.23;12.47;;;;;;;-1.83;99.30;95832.25;1019302;29;20511;-71
2021/01/09 01:03:12;;;;;;;20.23;12.83;;;;;;;-1.88;99.02;95826.84;1015526;29;20120;-72
2021/01/09 01:03:42;;;;;;;21.40;13.20;;;;;;;-1.80;99.03;95833.66;1015751;29;20032;-71
2021/01/09 01:04:13;;;;;;;21.03;13.20;;;;;;;-1.78;98.82;95835.06;1019499;29;20035;-72
2021/01/09 01:04:43;;;;;;;17.37;11.80;;;;;;;-1.83;98.81;95827.09;1023422;28;20096;-72
2021/01/09 01:05:14;;;;;;;20.80;13.63;;;;;;;-1.78;98.95;95835.06;1019320;29;20028;-72
2021/01/09 01:05:45;;;;;;;20.30;13.20;;;;;;;-1.78;99.16;95837.63;1018998;29;20051;-72
2021/01/09 01:06:22;;;;;;;21.37;13.23;;;;;;;-1.77;98.94;95834.09;1022899;29;20050;-71
2021/01/09 01:06:53;;;;;;;22.15;14.20;;;;;;;-1.78;99.26;95832.47;1027045;28;20078;-71
2021/01/09 01:07:24;;;;;;;24.98;14.93;;;;;;;-1.78;99.80;95834.25;1035513;28;20025;-72
2021/01/09 01:07:54;;;;;;;21.30;13.53;;;;;;;-1.87;99.83;95831.03;1035541;28;20026;-71
2021/01/09 01:08:25;;;;;;;23.27;14.23;;;;;;;-1.86;99.54;95826.69;1027446;28;20030;-72
2021/01/09 01:08:56;;;;;;;27.83;14.97;;;;;;;-1.83;99.50;95837.41;1023030;28;20826;-73
2021/01/09 01:09:26;;;;;;;24.87;15.23;;;;;;;-1.84;99.74;95838.38;1023518;29;20039;-72
2021/01/09 01:09:57;;;;;;;23.73;14.97;;;;;;;-1.85;99.86;95839.34;1019296;29;20039;-73
2021/01/09 01:10:27;;;;;;;22.57;14.67;;;;;;;-1.92;100.00;95823.84;1015217;29;20689;-71
2021/01/09 01:10:58;;;;;;;26.63;14.57;;;;;;;-1.90;100.00;95828.81;1015393;29;20107;-72
2021/01/09 01:11:29;;;;;;;21.40;14.03;;;;;;;-1.95;100.00;95824.22;1015899;28;20039;-74
2021/01/09 01:12:02;;;;;;;21.17;13.63;;;;;;;-1.91;100.00;95829.81;1023460;28;20035;-73
2021/01/09 01:12:32;;;;;;;27.25;15.85;;;;;;;-1.88;99.92;95839.69;1023519;28;20644;-73
2021/01/09 01:13:03;;;;;;;23.30;14.60;;;;;;;-1.91;100.00;95835.75;1023180;29;20210;-72
2021/01/09 01:13:33;;;;;;;21.57;13.77;;;;;;;-1.89;100.00;95838.13;1023858;28;20035;-72
2021/01/09 01:14:07;;;;;;;22.40;14.37;;;;;;;-1.94;100.00;95835.31;1023353;28;20045;-71
2021/01/09 01:14:37;;;;;;;20.40;13.82;;;;;;;-1.92;99.54;95843.63;1026818;28;20134;-71
2021/01/09 01:15:08;;;;;;;21.77;14.40;;;;;;;-1.93;100.00;95840.25;1019060;29;20115;-70
2021/01/09 01:15:39;;;;;;;21.65;13.75;;;;;;;-2.09;99.49;95817.34;1022322;29;20394;-71
2021/01/09 01:16:13;;;;;;;24.47;14.20;;;;;;;-1.94;99.92;95835.31;1019116;29;20138;-72
2021/01/09 01:16:43;;;;;;;20.52;14.50;;;;;;;-1.96;100.00;95832.13;1015305;29;20639;-72
2021/01/09 01:17:14;;;;;;;21.37;14.90;;;;;;;-2.04;100.00;95824.53;1011336;29;20136;-72
2021/01/09 01:17:48;;;;;;;20.83;13.03;;;;;;;-1.97;100.00;95839.03;1019327;29;20434;-72
2021/01/09 01:18:22;;;;;;;22.77;14.65;;;;;;;-2.06;99.84;95822.13;1023251;29;20045;-73
2021/01/09 01:18:52;;;;;;;23.75;14.68;;;;;;;-1.95;99.84;95838.84;1015375;29;20435;-72
2021/01/09 01:19:23;;;;;;;23.30;14.33;;;;;;;-2.01;100.00;95830.09;1015812;29;20031;-71
2021/01/09 01:19:53;;;;;;;25.33;15.50;;;;;;;-1.98;100.00;95842.59;1020009;29;20028;-70
2021/01/09 01:20:24;;;;;;;23.33;14.93;;;;;;;-2.00;100.00;95841.97;1019144;29;20027;-71
2021/01/09 01:20:54;;;;;;;25.70;14.53;;;;;;;-2.04;99.88;95837.38;1019019;29;20028;-72
2021/01/09 01:21:25;;;;;;;23.27;15.13;;;;;;;-2.08;100.00;95828.41;1015326;29;20063;-71
2021/01/09 01:21:55;;;;;;;24.10;13.93;;;;;;;-2.03;100.00;95836.41;1023327;29;20031;-71
2021/01/09 01:22:26;;;;;;;23.13;14.97;;;;;;;-2.02;100.00;95843.13;1022175;29;20023;-70
2021/01/09 01:22:56;;;;;;;22.37;15.50;;;;;;;-2.04;100.00;95840.75;1019413;28;20058;-74
2021/01/09 01:23:27;;;;;;;24.57;15.50;;;;;;;-2.05;100.00;95831.41;1023267;28;20039;-72
2021/01/09 01:23:57;;;;;;;21.40;14.60;;;;;;;-2.14;100.00;95820.47;1023253;29;20436;-72
2021/01/09 01:24:27;;;;;;;25.30;15.83;;;;;;;-2.05;100.00;95835.75;1022109;28;20425;-73
2021/01/09 01:24:58;;;;;;;24.00;15.63;;;;;;;-2.03;100.00;95833.81;1023072;29;20046;-72
2021/01/09 01:25:29;;;;;;;22.57;14.67;;;;;;;-2.04;100.00;95832.25;1023156;28;20031;-71
2021/01/09 01:25:59;;;;;;;26.43;15.30;;;;;;;-2.07;100.00;95830.03;1023059;28;20411;-72
2021/01/09 01:26:30;;;;;;;25.57;15.60;;;;;;;-2.09;100.00;95826.81;1018682;29;20035;-70
2021/01/09 01:27:00;;;;;;;22.87;14.70;;;;;;;-2.15;100.00;95816.31;1018985;29;20027;-71
2021/01/09 01:27:30;;;;;;;24.43;15.10;;;;;;;-2.17;100.00;95818.25;1018910;29;20047;-72
2021/01/09 01:28:01;;;;;;;23.07;15.10;;;;;;;-2.10;100.00;95830.38;1015384;29;20039;-71
2021/01/09 01:28:31;;;;;;;24.80;15.07;;;;;;;-2.11;100.00;95829.59;1015419;29;20032;-70
2021/01/09 01:29:03;;;;;;;23.47;14.60;;;;;;;-2.14;100.00;95825.59;1019000;29;20028;-72
2021/01/09 01:29:34;;;;;;;24.20;15.10;;;;;;;-2.11;100.00;95826.19;1019114;29;20689;-71
2021/01/09 01:30:04;;;;;;;25.73;15.83;;;;;;;-2.11;100.00;95828.78;1015208;29;20028;-73
2021/01/09 01:30:35;;;;;;;26.13;16.13;;;;;;;-2.17;100.00;95822.59;1015720;29;20035;-72
2021/01/09 01:31:06;;;;;;;25.23;15.40;;;;;;;-2.14;100.00;95823.03;1019340;28;20434;-71
2021/01/09 01:31:36;;;;;;;25.47;16.30;;;;;;;-2.23;100.00;95818.19;1019431;28;20026;-71
2021/01/09 01:32:07;;;;;;;24.70;15.90;;;;;;;-2.28;100.00;95816.16;1019168;29;20099;-73
2021/01/09 01:32:37;;;;;;;28.20;16.83;;;;;;;-2.21;100.00;95829.09;1023243;29;20035;-71
2021/01/09 01:33:08;;;;;;;25.93;16.10;;;;;;;-2.23;100.00;95831.03;1022662;28;20034;-71
2021/01/09 01:33:39;;;;;;;25.00;16.33;;;;;;;-2.34;100.00;95816.09;1023247;29;20452;-73
2021/01/09 01:34:09;;;;;;;24.13;16.40;;;;;;;-2.23;100.00;95826.69;1019255;29;20028;-72
2021/01/09 01:34:40;;;;;;;28.73;17.37;;;;;;;-2.27;100.00;95825.44;1018707;29;20108;-71
2021/01/09 01:35:10;;;;;;;26.47;17.13;;;;;;;-2.38;100.00;95819.00;1022790;29;20613;-72
2021/01/09 01:35:41;;;;;;;28.03;17.60;;;;;;;-2.25;100.00;95831.19;1023094;29;20031;-71
2021/01/09 01:36:11;;;;;;;25.80;17.17;;;;;;;-2.28;100.00;95833.31;1023056;29;20126;-71
2021/01/09 01:36:47;;;;;;;29.03;17.30;;;;;;;-2.28;100.00;95834.16;1018507;29;20028;-72
2021/01/09 01:37:17;;;;;;;26.38;16.38;;;;;;;-2.30;100.00;95833.53;1023569;28;20079;-71
2021/01/09 01:37:48;;;;;;;24.43;16.60;;;;;;;-2.30;100.00;95836.09;1023362;28;20110;-71
2021/01/09 01:38:18;;;;;;;25.13;17.27;;;;;;;-2.32;100.00;95832.88;1022714;28;20042;-70
2021/01/09 01:38:49;;;;;;;28.03;17.43;;;;;;;-2.31;100.00;95834.50;1015293;29;20028;-70
2021/01/09 01:39:19;;;;;;;27.50;17.10;;;;;;;-2.31;100.00;95834.50;1015152;29;20036;-71
2021/01/09 01:39:50;;;;;;;27.43;17.83;;;;;;;-2.31;100.00;95833.69;1021980;28;20110;-71
2021/01/09 01:40:23;;;;;;;28.80;18.33;;;;;;;-2.42;100.00;95820.31;1019288;28;20039;-71
2021/01/09 01:41:06;;;;;;;28.45;18.00;;;;;;;-2.35;100.00;95832.44;1027177;28;20127;-72
2021/01/09 01:41:37;;;;;;;29.88;17.95;;;;;;;-2.45;100.00;95818.13;1022521;29;20046;-71
2021/01/09 01:42:07;;;;;;;27.60;17.90;;;;;;;-2.35;100.00;95832.44;1023036;29;20835;-71
2021/01/09 01:42:38;;;;;;;31.60;17.30;;;;;;;-2.38;100.00;95831.06;1023258;29;20027;-71
2021/01/09 01:43:10;;;;;;;29.20;18.47;;;;;;;-2.35;100.00;95835.81;1018700;29;20059;-72
2021/01/09 01:43:40;;;;;;;27.05;16.45;;;;;;;-2.46;100.00;95831.13;1015418;29;20016;-73
2021/01/09 01:44:11;;;;;;;28.23;17.93;;;;;;;-2.37;100.00;95836.00;1015325;29;20083;-72
2021/01/09 01:44:41;;;;;;;28.80;17.97;;;;;;;-2.36;100.00;95839.38;1015500;29;20535;-72
2021/01/09 01:45:12;;;;;;;27.60;17.17;;;;;;;-2.35;100.00;95838.38;1014877;29;20142;-71
2021/01/09 01:45:42;;;;;;;29.90;17.03;;;;;;;-2.43;100.00;95825.66;1019123;28;20443;-71
2021/01/09 01:46:13;;;;;;;28.77;16.70;;;;;;;-2.36;100.00;95831.66;1019091;29;20019;-72
2021/01/09 01:46:44;;;;;;;31.50;18.77;;;;;;;-2.44;100.00;95824.06;1020526;29;20089;-72
2021/01/09 01:47:18;;;;;;;28.90;18.70;;;;;;;-2.41;100.00;95828.84;1022880;29;20031;-69
2021/01/09 01:47:49;;;;;;;32.83;18.27;;;;;;;-2.37;100.00;95842.94;1019050;29;20106;-71
2021/01/09 01:48:19;;;;;;;30.00;17.93;;;;;;;-2.39;100.00;95839.72;1021721;29;20094;-72
2021/01/09 01:48:50;;;;;;;26.63;17.87;;;;;;;-2.44;100.00;95832.56;1027685;28;20046;-73
2021/01/09 01:49:20;;;;;;;29.27;17.63;;;;;;;-2.38;100.00;95842.13;1023033;28;20035;-73
2021/01/09 01:49:51;;;;;;;28.40;17.57;;;;;;;-2.43;100.00;95833.34;1022933;29;20031;-71
2021/01/09 01:50:21;;;;;;;30.33;19.00;;;;;;;-2.39;100.00;95850.00;1018810;29;20403;-71
2021/01/09 01:50:52;;;;;;;28.30;17.53;;;;;;;-2.40;100.00;95836.34;1023228;29;20023;-71
2021/01/09 01:51:23;;;;;;;33.03;18.63;;;;;;;-2.44;100.00;95830.00;1026935;28;20706;-72
2021/01/09 01:51:53;;;;;;;31.73;18.83;;;;;;;-2.42;100.00;95834.94;1017423;29;20024;-71
2021/01/09 01:52:23;;;;;;;33.20;18.97;;;;;;;-2.39;100.00;95842.28;1019381;29;20488;-72
2021/01/09 01:52:54;;;;;;;29.77;17.97;;;;;;;-2.44;100.00;95835.13;1026997;28;20107;-73
2021/01/09 01:53:28;;;;;;;30.57;19.40;;;;;;;-2.39;100.00;95840.50;1025082;28;20027;-71
2021/01/09 01:53:59;;;;;;;29.13;18.00;;;;;;;-2.42;100.00;95838.31;1023098;29;20027;-71
2021/01/09 01:54:30;;;;;;;28.70;18.55;;;;;;;-2.39;100.00;95835.38;1019797;29;20160;-73
2021/01/09 01:55:00;;;;;;;32.17;18.77;;;;;;;-2.40;100.00;95833.78;1024386;28;20537;-70
2021/01/09 01:55:31;;;;;;;32.80;19.23;;;;;;;-2.35;100.00;95845.31;1019005;29;20028;-73
2021/01/09 01:56:01;;;;;;;32.53;18.93;;;;;;;-2.44;100.00;95830.00;1019231;29;20069;-72
2021/01/09 01:56:32;;;;;;;28.83;17.80;;;;;;;-2.36;100.00;95841.94;1016325;29;20048;-72
2021/01/09 01:57:03;;;;;;;30.77;18.90;;;;;;;-2.36;100.00;95847.06;1023015;28;20023;-71
2021/01/09 01:57:33;;;;;;;31.07;18.27;;;;;;;-2.38;100.00;95851.63;1022957;29;20015;-71
2021/01/09 01:58:03;;;;;;;30.07;18.60;;;;;;;-2.37;100.00;95848.84;1018799;29;20047;-71
2021/01/09 01:58:34;;;;;;;29.77;18.43;;;;;;;-2.37;100.00;95848.06;1023002;29;20023;-71
2021/01/09 01:59:04;;;;;;;33.70;18.67;;;;;;;-2.38;100.00;95847.28;1027318;28;20038;-71
2021/01/09 01:59:35;;;;;;;33.03;19.33;;;;;;;-2.48;100.00;95840.78;1031160;28;20026;-70
2021/01/09 02:00:06;;;;;;;31.92;18.45;;;;;;;-2.39;100.00;95852.56;1033042;28;20018;-73
2021/01/09 02:00:42;;;;;;;28.00;18.40;;;;;;;-2.41;100.00;95854.53;1031206;28;20093;-72
2021/01/09 02:01:14;;;;;;;30.75;18.55;;;;;;;-2.41;100.00;95854.53;1019037;29;20035;-73
2021/01/09 02:01:47;;;;;;;28.95;18.17;;;;;;;-2.44;100.00;95849.75;1013288;29;20078;-73
2021/01/09 02:02:17;;;;;;;29.27;17.88;;;;;;;-2.44;100.00;95849.75;1015033;29;20024;-72
2021/01/09 02:02:48;;;;;;;29.53;17.67;;;;;;;-2.43;100.00;95853.91;1023206;29;20039;-71
2021/01/09 02:03:19;;;;;;;32.23;19.23;;;;;;;-2.51;100.00;95843.75;1012739;29;20469;-71
2021/01/09 02:03:49;;;;;;;35.38;19.85;;;;;;;-2.50;100.00;95842.75;1019067;29;20038;-71
2021/01/09 02:04:20;;;;;;;29.67;18.97;;;;;;;-2.52;100.00;95832.66;1019047;29;20032;-72
2021/01/09 02:04:57;;;;;;;28.80;18.63;;;;;;;-2.41;100.00;95857.09;1018863;29;20016;-72
2021/01/09 02:05:33;;;;;;;32.65;19.33;;;;;;;-2.41;100.00;95850.19;1026917;28;20537;-72
2021/01/09 02:06:16;;;;;;;33.67;19.15;;;;;;;-2.39;100.00;95852.56;1022622;28;20679;-74
2021/01/09 02:06:47;;;;;;;28.25;17.70;;;;;;;-2.50;100.00;95840.19;1022037;28;20016;-73
2021/01/09 02:07:20;;;;;;;28.95;18.13;;;;;;;-2.41;100.00;95854.53;1022949;29;20019;-71
2021/01/09 02:07:53;;;;;;;31.85;18.90;;;;;;;-2.48;100.00;95835.66;1019135;29;20487;-71
2021/01/09 02:08:26;;;;;;;32.30;19.40;;;;;;;-2.43;100.00;95848.78;1015722;29;20028;-69
2021/01/09 02:09:04;;;;;;;32.67;19.13;;;;;;;-2.39;100.00;95852.56;1017316;29;20064;-70
2021/01/09 02:09:40;;;;;;;31.58;19.35;;;;;;;-2.39;100.00;95852.56;1021157;29;20114;-71
2021/01/09 02:10:10;;;;;;;32.03;19.55;;;;;;;-2.39;100.00;95855.13;1019262;28;20016;-71
2021/01/09 02:10:41;;;;;;;31.80;20.13;;;;;;;-2.39;100.00;95852.56;1024980;28;20027;-72
2021/01/09 02:11:26;;;;;;;31.60;19.17;;;;;;;-2.39;100.00;95857.72;1020636;28;20016;-71
2021/01/09 02:12:00;;;;;;;34.10;20.13;;;;;;;-2.40;100.00;95851.78;1024617;28;20023;-73
2021/01/09 02:12:39;;;;;;;32.47;19.60;;;;;;;-2.39;100.00;95853.38;1018772;28;20023;-72
2021/01/09 02:13:19;;;;;;;31.15;18.75;;;;;;;-2.39;100.00;95852.56;1015197;29;20072;-71
2021/01/09 02:14:14;;;;;;;32.90;19.20;;;;;;;-2.41;100.00;95849.41;1025414;28;20023;-70
2021/01/09 02:14:48;;;;;;;33.55;19.92;;;;;;;-2.43;100.00;95847.00;1029608;28;20547;-72
2021/01/09 02:15:18;;;;;;;32.95;20.98;;;;;;;-2.47;100.00;95845.75;1020178;28;20055;-71
2021/01/09 02:15:50;;;;;;;32.20;18.83;;;;;;;-2.52;100.00;95826.72;1018757;29;20024;-72
2021/01/09 02:16:20;;;;;;;31.88;19.98;;;;;;;-2.40;100.00;95845.84;1018374;29;20047;-72
2021/01/09 02:16:51;;;;;;;36.60;20.90;;;;;;;-2.46;100.00;95838.84;1018707;29;20037;-72
2021/01/09 02:17:21;;;;;;;32.50;18.93;;;;;;;-2.44;100.00;95842.03;1016164;29;20016;-72
2021/01/09 02:17:51;;;;;;;27.70;17.97;;;;;;;-2.45;100.00;95843.00;1019002;29;20028;-73
2021/01/09 02:18:22;;;;;;;31.07;19.33;;;;;;;-2.49;100.00;95839.19;1019100;29;20395;-72
2021/01/09 02:18:52;;;;;;;31.60;20.03;;;;;;;-2.49;100.00;95834.06;1016876;29;20032;-71
2021/01/09 02:19:24;;;;;;;32.77;20.40;;;;;;;-2.50;100.00;95840.19;1022975;28;20035;-71
2021/01/09 02:19:58;;;;;;;34.55;20.50;;;;;;;-2.52;100.00;95836.97;1027056;28;20371;-71
2021/01/09 02:20:29;;;;;;;31.85;20.35;;;;;;;-2.48;100.00;95838.22;1021247;29;20034;-71
2021/01/09 02:21:05;;;;;;;29.30;19.07;;;;;;;-2.49;100.00;95834.84;1018782;29;20665;-73
2021/01/09 02:21:40;;;;;;;34.28;20.85;;;;;;;-2.52;100.00;95831.84;1022907;29;20533;-70
2021/01/09 02:22:17;;;;;;;37.47;21.17;;;;;;;-2.49;100.00;95837.44;1022950;29;20114;-72
2021/01/09 02:22:47;;;;;;;32.42;20.38;;;;;;;-2.59;100.00;95826.63;1015156;29;20039;-72
2021/01/09 02:23:24;;;;;;;32.63;19.43;;;;;;;-2.57;100.00;95819.56;1011094;29;20029;-71
2021/01/09 02:23:54;;;;;;;34.20;19.63;;;;;;;-2.46;100.00;95841.41;1016951;29;20028;-74